createdAt,value
2022-12-11T00:00:27.271Z,28.65
2022-12-11T00:02:54.004Z,29.05
2022-12-11T00:05:20.827Z,27.90
2022-12-11T00:07:48.925Z,29.35
2022-12-11T00:10:15.698Z,28.10
2022-12-11T00:12:42.399Z,28.33
2022-12-11T00:15:09.843Z,28.65
2022-12-11T00:17:38.277Z,25.52
2022-12-11T00:20:05.590Z,26.13
2022-12-11T00:22:32.294Z,29.25
2022-12-11T00:24:59.065Z,27.08
2022-12-11T00:27:25.787Z,25.40
2022-12-11T00:29:52.489Z,24.55
2022-12-11T00:32:19.172Z,26.75
2022-12-11T00:34:45.845Z,30.38
2022-12-11T00:37:12.592Z,27.30
2022-12-11T00:39:39.880Z,27.98
2022-12-11T00:42:07.841Z,23.15
2022-12-11T00:44:35.099Z,24.45
2022-12-11T00:47:01.944Z,28.45
2022-12-11T00:49:28.689Z,28.08
2022-12-11T00:51:55.381Z,33.25
2022-12-11T00:54:22.071Z,25.10
2022-12-11T00:56:48.739Z,23.98
2022-12-11T00:59:15.435Z,23.70
2022-12-11T01:01:42.526Z,22.65
2022-12-11T01:04:09.257Z,23.48
2022-12-11T01:06:35.928Z,22.95
2022-12-11T01:09:32.090Z,25.60
2022-12-11T01:11:58.804Z,31.50
2022-12-11T01:14:26.950Z,23.13
2022-12-11T01:16:53.723Z,31.27
2022-12-11T01:19:20.448Z,28.75
2022-12-11T01:21:47.127Z,27.95
2022-12-11T01:24:13.817Z,26.15
2022-12-11T01:26:40.502Z,25.08
2022-12-11T01:29:07.262Z,24.15
2022-12-11T01:31:34.049Z,22.77
2022-12-11T01:34:00.841Z,23.08
2022-12-11T01:36:27.531Z,19.85
2022-12-11T01:38:54.462Z,22.33
2022-12-11T01:41:21.658Z,24.50
2022-12-11T01:44:28.945Z,22.90
2022-12-11T01:46:55.637Z,24.58
2022-12-11T01:49:26.602Z,26.48
2022-12-11T01:51:57.694Z,22.27
2022-12-11T01:54:27.850Z,23.92
2022-12-11T01:56:58.615Z,22.42
2022-12-11T01:59:28.563Z,22.30
2022-12-11T02:01:59.302Z,24.67
2022-12-11T02:04:26.392Z,20.65
2022-12-11T02:06:53.648Z,22.38
2022-12-11T02:09:24.805Z,22.13
2022-12-11T02:12:19.120Z,21.42
2022-12-11T02:15:00.993Z,24.17
2022-12-11T02:17:50.565Z,21.10
2022-12-11T02:20:40.502Z,22.70
2022-12-11T02:23:13.329Z,23.98
2022-12-11T02:25:57.308Z,21.95
2022-12-11T02:28:33.275Z,21.90
2022-12-11T02:31:09.404Z,23.00
2022-12-11T02:34:04.399Z,21.95
2022-12-11T02:36:37.086Z,22.80
2022-12-11T02:39:07.095Z,23.90
2022-12-11T02:41:34.153Z,21.63
2022-12-11T02:44:03.364Z,24.30
2022-12-11T02:46:31.813Z,24.42
2022-12-11T02:48:58.905Z,22.15
2022-12-11T02:51:29.739Z,26.40
2022-12-11T02:53:59.252Z,27.30
2022-12-11T02:56:39.720Z,23.77
2022-12-11T02:59:11.182Z,24.48
2022-12-11T03:01:38.287Z,24.55
2022-12-11T03:04:05.472Z,25.90
2022-12-11T03:06:36.983Z,26.02
2022-12-11T03:09:05.435Z,25.60
2022-12-11T03:11:32.107Z,24.17
2022-12-11T03:14:02.725Z,24.45
2022-12-11T03:16:36.800Z,26.20
2022-12-11T03:19:15.113Z,27.05
2022-12-11T03:21:47.889Z,28.35
2022-12-11T03:24:22.082Z,26.58
2022-12-11T03:26:56.874Z,25.23
2022-12-11T03:29:29.879Z,23.23
2022-12-11T03:32:10.597Z,20.73
2022-12-11T03:34:53.479Z,24.42
2022-12-11T03:37:26.198Z,23.00
2022-12-11T03:39:59.154Z,21.73
2022-12-11T03:42:27.403Z,23.60
2022-12-11T03:44:56.850Z,23.38
2022-12-11T03:47:25.627Z,21.33
2022-12-11T03:49:53.691Z,26.17
2022-12-11T03:52:21.622Z,24.15
2022-12-11T03:54:50.794Z,24.35
2022-12-11T03:57:21.439Z,23.05
2022-12-11T03:59:49.487Z,23.45
2022-12-11T04:02:16.239Z,21.95
2022-12-11T04:04:43.137Z,20.83
2022-12-11T04:07:10.092Z,22.75
2022-12-11T04:09:37.004Z,20.33
2022-12-11T04:12:03.882Z,25.10
2022-12-11T04:14:49.144Z,28.40
2022-12-11T04:17:35.912Z,23.98
2022-12-11T04:20:22.045Z,21.60
2022-12-11T04:23:07.525Z,20.13
2022-12-11T04:25:34.247Z,31.65
2022-12-11T04:28:00.973Z,26.48
2022-12-11T04:30:33.782Z,22.65
2022-12-11T04:33:01.396Z,24.73
2022-12-11T04:35:28.553Z,20.63
2022-12-11T04:37:55.571Z,23.70
2022-12-11T04:40:22.913Z,26.98
2022-12-11T04:42:49.607Z,24.13
2022-12-11T04:45:16.573Z,27.08
2022-12-11T04:47:43.249Z,27.38
2022-12-11T04:50:12.006Z,23.33
2022-12-11T04:52:38.788Z,23.48
2022-12-11T04:55:07.640Z,22.27
2022-12-11T04:57:34.773Z,20.23
2022-12-11T05:00:02.113Z,22.20
2022-12-11T05:02:29.289Z,20.80
2022-12-11T05:04:56.015Z,19.80
2022-12-11T05:07:22.689Z,17.83
2022-12-11T05:09:49.421Z,18.67
2022-12-11T05:12:16.096Z,21.17
2022-12-11T05:14:42.784Z,17.25
2022-12-11T05:17:09.466Z,16.38
2022-12-11T05:19:36.183Z,17.58
2022-12-11T05:22:02.906Z,19.50
2022-12-11T05:24:29.610Z,19.33
2022-12-11T05:26:56.337Z,19.48
2022-12-11T05:29:23.046Z,17.50
2022-12-11T05:31:49.705Z,18.67
2022-12-11T05:34:16.412Z,16.35
2022-12-11T05:36:43.095Z,17.50
2022-12-11T05:39:11.918Z,18.55
2022-12-11T05:41:38.639Z,17.15
2022-12-11T05:44:05.704Z,18.42
2022-12-11T05:46:32.565Z,19.88
2022-12-11T05:49:01.395Z,17.30
2022-12-11T05:51:29.662Z,18.33
2022-12-11T05:53:58.081Z,19.50
2022-12-11T05:56:27.783Z,17.92
2022-12-11T05:58:55.887Z,21.25
2022-12-11T06:01:43.077Z,19.45
2022-12-11T06:04:11.520Z,18.35
2022-12-11T06:06:40.606Z,21.52
2022-12-11T06:09:07.657Z,19.77
2022-12-11T06:11:35.707Z,28.02
2022-12-11T06:14:03.582Z,20.33
2022-12-11T06:16:31.031Z,18.60
2022-12-11T06:18:58.645Z,18.63
2022-12-11T06:21:33.016Z,17.25
2022-12-11T06:24:02.174Z,18.75
2022-12-11T06:26:29.663Z,17.33
2022-12-11T06:28:56.463Z,17.52
2022-12-11T06:31:23.337Z,20.42
2022-12-11T06:33:50.122Z,18.58
2022-12-11T06:36:20.076Z,18.40
2022-12-11T06:38:47.852Z,14.65
2022-12-11T06:41:15.024Z,14.98
2022-12-11T06:43:43.339Z,14.90
2022-12-11T06:46:17.147Z,13.80
2022-12-11T06:48:44.818Z,14.60
2022-12-11T06:51:17.150Z,15.43
2022-12-11T06:53:44.199Z,16.75
2022-12-11T06:56:14.388Z,12.98
2022-12-11T06:58:42.398Z,14.70
2022-12-11T07:01:29.402Z,13.40
2022-12-11T07:03:58.781Z,14.15
2022-12-11T07:06:27.057Z,12.65
2022-12-11T07:08:54.466Z,12.05
2022-12-11T07:11:22.117Z,14.00
2022-12-11T07:13:49.356Z,15.43
2022-12-11T07:16:17.973Z,12.07
2022-12-11T07:18:49.040Z,14.32
2022-12-11T07:21:16.705Z,14.35
2022-12-11T07:23:43.690Z,17.08
2022-12-11T07:26:12.856Z,17.48
2022-12-11T07:28:39.848Z,13.32
2022-12-11T07:31:08.231Z,13.27
2022-12-11T07:33:35.421Z,12.30
2022-12-11T07:36:04.788Z,15.48
2022-12-11T07:38:31.818Z,13.85
2022-12-11T07:41:06.513Z,21.42
2022-12-11T07:43:35.186Z,16.58
2022-12-11T07:46:03.992Z,14.13
2022-12-11T07:48:30.923Z,14.27
2022-12-11T07:51:18.002Z,13.13
2022-12-11T07:53:46.638Z,12.60
2022-12-11T07:56:14.331Z,14.55
2022-12-11T07:58:41.347Z,14.18
2022-12-11T08:01:17.182Z,18.50
2022-12-11T08:03:44.679Z,27.50
2022-12-11T08:06:12.049Z,19.10
2022-12-11T08:08:40.983Z,15.00
2022-12-11T08:11:10.430Z,11.98
2022-12-11T08:13:37.516Z,13.40
2022-12-11T08:16:09.783Z,17.20
2022-12-11T08:18:37.366Z,17.30
2022-12-11T08:21:14.049Z,14.80
2022-12-11T08:23:41.003Z,16.42
2022-12-11T08:26:10.752Z,17.65
2022-12-11T08:28:37.446Z,16.27
2022-12-11T08:31:06.547Z,15.15
2022-12-11T08:33:33.666Z,14.60
2022-12-11T08:36:04.102Z,12.68
2022-12-11T08:38:32.425Z,10.80
2022-12-11T08:40:59.581Z,11.50
2022-12-11T08:43:26.284Z,10.60
2022-12-11T08:45:53.033Z,9.88
2022-12-11T08:48:19.794Z,13.43
2022-12-11T08:50:46.504Z,19.05
2022-12-11T08:53:13.197Z,18.80
2022-12-11T08:55:39.886Z,13.50
2022-12-11T08:58:06.585Z,11.50
2022-12-11T09:00:33.258Z,10.25
2022-12-11T09:02:59.940Z,12.93
2022-12-11T09:05:26.672Z,12.35
2022-12-11T09:07:53.456Z,12.10
2022-12-11T09:10:20.368Z,10.35
2022-12-11T09:12:47.091Z,10.40
2022-12-11T09:15:14.157Z,10.02
2022-12-11T09:17:40.931Z,9.07
2022-12-11T09:20:08.137Z,10.00
2022-12-11T09:22:34.850Z,14.05
2022-12-11T09:25:01.609Z,12.57
2022-12-11T09:27:29.170Z,11.43
2022-12-11T09:29:55.911Z,12.07
2022-12-11T09:32:22.596Z,9.93
2022-12-11T09:34:51.127Z,10.02
2022-12-11T09:37:18.031Z,9.82
2022-12-11T09:39:44.746Z,10.65
2022-12-11T09:42:20.140Z,11.55
2022-12-11T09:44:51.523Z,10.85
2022-12-11T09:47:37.706Z,10.32
2022-12-11T09:50:11.296Z,10.05
2022-12-11T09:53:04.398Z,11.75
2022-12-11T09:56:03.248Z,10.38
2022-12-11T09:59:07.349Z,9.95
2022-12-11T10:01:49.869Z,10.05
2022-12-11T10:04:37.968Z,13.45
2022-12-11T10:07:25.924Z,10.60
2022-12-11T10:10:22.174Z,10.35
2022-12-11T10:13:17.004Z,11.15
2022-12-11T10:15:53.012Z,12.57
2022-12-11T10:18:23.034Z,10.07
2022-12-11T10:20:54.466Z,8.45
2022-12-11T10:23:40.322Z,7.72
2022-12-11T10:26:21.617Z,7.50
2022-12-11T10:28:48.448Z,6.97
2022-12-11T10:31:41.065Z,7.95
2022-12-11T10:34:25.485Z,6.60
2022-12-11T10:37:00.161Z,9.68
2022-12-11T10:39:27.635Z,11.07
2022-12-11T10:41:55.936Z,9.57
2022-12-11T10:44:30.949Z,9.80
2022-12-11T10:47:15.528Z,8.00
2022-12-11T10:49:58.254Z,10.10
2022-12-11T10:52:28.328Z,7.15
2022-12-11T10:55:08.405Z,9.55
2022-12-11T10:57:37.683Z,8.85
2022-12-11T11:00:06.478Z,10.98
2022-12-11T11:02:33.271Z,11.32
2022-12-11T11:05:10.661Z,7.10
2022-12-11T11:07:37.644Z,8.13
2022-12-11T11:10:10.401Z,8.05
2022-12-11T11:12:46.445Z,8.27
2022-12-11T11:15:15.726Z,7.13
2022-12-11T11:17:55.089Z,8.27
2022-12-11T11:20:28.211Z,8.30
2022-12-11T11:23:12.311Z,9.25
2022-12-11T11:25:39.035Z,7.68
2022-12-11T11:28:08.311Z,7.72
2022-12-11T11:30:38.927Z,7.80
2022-12-11T11:33:20.720Z,9.55
2022-12-11T11:36:05.627Z,7.77
2022-12-11T11:38:50.442Z,7.35
2022-12-11T11:41:19.703Z,8.15
2022-12-11T11:43:59.813Z,8.43
2022-12-11T11:46:33.353Z,9.48
2022-12-11T11:49:22.833Z,8.57
2022-12-11T11:51:54.287Z,8.50
2022-12-11T11:54:39.044Z,6.68
2022-12-11T11:58:04.321Z,8.93
2022-12-11T12:00:33.971Z,5.90
2022-12-11T12:03:06.068Z,3.00
2022-12-11T12:05:39.371Z,6.82
2022-12-11T12:08:24.329Z,6.40
2022-12-11T12:11:01.529Z,9.05
2022-12-11T12:13:49.102Z,9.48
2022-12-11T12:19:39.846Z,9.15
2022-12-11T12:22:38.439Z,8.15
2022-12-11T12:25:29.943Z,6.80
2022-12-11T12:28:20.840Z,5.53
2022-12-11T12:31:29.453Z,8.00
2022-12-11T12:34:19.837Z,4.90
2022-12-11T12:37:00.244Z,3.47
2022-12-11T12:39:54.867Z,3.30
2022-12-11T12:42:33.710Z,6.50
2022-12-11T12:45:08.974Z,3.55
2022-12-11T12:47:36.676Z,5.40
2022-12-11T12:50:10.352Z,6.20
2022-12-11T12:52:40.685Z,7.85
2022-12-11T12:55:13.933Z,8.68
2022-12-11T12:57:45.313Z,9.27
2022-12-11T13:00:13.565Z,10.95
2022-12-11T13:02:50.790Z,7.38
2022-12-11T13:05:26.810Z,7.32
2022-12-11T13:07:57.270Z,5.75
2022-12-11T13:10:28.303Z,6.13
2022-12-11T13:12:55.204Z,5.53
2022-12-11T13:15:29.076Z,5.10
2022-12-11T13:17:56.470Z,5.32
2022-12-11T13:20:26.283Z,4.03
2022-12-11T13:23:15.801Z,3.67
2022-12-11T13:26:03.222Z,3.03
2022-12-11T13:28:38.936Z,3.63
2022-12-11T13:31:13.703Z,2.22
2022-12-11T13:33:50.764Z,2.90
2022-12-11T13:36:24.546Z,3.10
2022-12-11T13:38:59.990Z,2.90
2022-12-11T13:41:27.944Z,3.97
2022-12-11T13:43:55.306Z,3.83
2022-12-11T13:46:29.232Z,5.07
2022-12-11T13:49:01.058Z,6.88
2022-12-11T13:51:31.056Z,7.80
2022-12-11T13:54:03.562Z,10.85
2022-12-11T13:56:30.492Z,11.13
2022-12-11T13:58:57.195Z,17.58
2022-12-11T14:01:31.493Z,17.20
2022-12-11T14:04:02.926Z,10.98
2022-12-11T14:06:30.730Z,14.60
2022-12-11T14:09:00.716Z,18.60
2022-12-11T14:11:35.455Z,13.77
2022-12-11T14:14:05.196Z,19.88
2022-12-11T14:16:32.466Z,24.75
2022-12-11T14:19:05.815Z,17.00
2022-12-11T14:21:33.294Z,12.95
2022-12-11T14:24:03.960Z,30.80
2022-12-11T14:26:34.173Z,32.67
2022-12-11T14:29:02.703Z,43.05
2022-12-11T14:31:34.282Z,118.10
2022-12-11T14:34:12.296Z,36.05
2022-12-11T14:36:41.187Z,32.88
2022-12-11T14:39:14.132Z,31.50
2022-12-11T14:41:53.659Z,51.63
2022-12-11T14:44:22.600Z,49.70
2022-12-11T14:46:56.772Z,53.97
2022-12-11T14:49:32.169Z,36.15
2022-12-11T14:52:00.040Z,34.80
2022-12-11T14:54:53.064Z,29.23
2022-12-11T14:57:23.634Z,40.28
2022-12-11T14:59:53.075Z,49.22
2022-12-11T15:02:32.929Z,17.65
2022-12-11T15:05:06.151Z,10.70
2022-12-11T15:07:33.863Z,16.05
2022-12-11T15:10:00.568Z,14.38
2022-12-11T15:12:27.268Z,17.08
2022-12-11T15:15:00.768Z,14.95
2022-12-11T15:17:30.717Z,16.98
2022-12-11T15:20:06.641Z,30.65
2022-12-11T15:22:33.560Z,22.75
2022-12-11T15:25:00.985Z,27.80
2022-12-11T15:27:38.020Z,16.55
2022-12-11T15:30:21.760Z,18.15
2022-12-11T15:32:48.557Z,17.05
2022-12-11T15:35:26.880Z,16.02
2022-12-11T15:37:55.524Z,15.32
2022-12-11T15:40:22.721Z,15.50
2022-12-11T15:42:50.264Z,16.88
2022-12-11T15:45:22.741Z,14.10
2022-12-11T15:47:50.304Z,14.93
2022-12-11T15:50:22.501Z,18.75
2022-12-11T15:52:50.841Z,26.05
2022-12-11T15:55:18.857Z,31.38
2022-12-11T15:57:57.915Z,17.23
2022-12-11T16:00:25.057Z,15.07
2022-12-11T16:02:52.078Z,34.55
2022-12-11T16:05:19.201Z,57.22
2022-12-11T16:07:46.141Z,40.40
2022-12-11T16:10:17.981Z,30.25
2022-12-11T16:12:45.228Z,22.55
2022-12-11T16:15:17.496Z,18.58
2022-12-11T16:17:48.305Z,20.33
2022-12-11T16:20:15.272Z,22.27
2022-12-11T16:22:41.970Z,25.88
2022-12-11T16:25:08.922Z,24.88
2022-12-11T16:27:35.713Z,28.65
2022-12-11T16:30:02.431Z,32.22
2022-12-11T16:32:29.164Z,26.90
2022-12-11T16:35:00.640Z,25.52
2022-12-11T16:37:27.551Z,26.27
2022-12-11T16:39:54.267Z,28.67
2022-12-11T16:42:20.935Z,26.95
2022-12-11T16:44:48.105Z,23.55
2022-12-11T16:47:14.780Z,24.17
2022-12-11T16:49:43.066Z,42.78
2022-12-11T16:52:09.780Z,44.15
2022-12-11T16:54:36.521Z,27.50
2022-12-11T16:57:03.655Z,17.20
2022-12-11T16:59:36.620Z,17.02
2022-12-11T17:02:04.169Z,24.85
2022-12-11T17:04:30.867Z,27.33
2022-12-11T17:06:57.566Z,21.98
2022-12-11T17:09:24.250Z,27.08
2022-12-11T17:11:53.564Z,22.98
2022-12-11T17:14:20.388Z,21.92
2022-12-11T17:16:48.052Z,23.92
2022-12-11T17:19:15.681Z,23.65
2022-12-11T17:21:45.891Z,28.90
2022-12-11T17:24:17.846Z,19.13
2022-12-11T17:26:44.666Z,27.20
2022-12-11T17:29:12.156Z,36.30
2022-12-11T17:31:38.999Z,25.55
2022-12-11T17:34:06.384Z,22.23
2022-12-11T17:36:33.291Z,36.78
2022-12-11T17:38:59.988Z,37.05
2022-12-11T17:41:26.824Z,35.28
2022-12-11T17:43:55.575Z,34.83
2022-12-11T17:46:22.589Z,37.38
2022-12-11T17:48:49.858Z,24.98
2022-12-11T17:51:23.720Z,26.52
2022-12-11T17:53:52.782Z,30.27
2022-12-11T17:56:19.877Z,34.60
2022-12-11T17:58:46.657Z,34.17
2022-12-11T18:01:13.412Z,44.03
2022-12-11T18:03:41.090Z,42.03
2022-12-11T18:06:11.634Z,38.65
2022-12-11T18:08:38.970Z,34.25
2022-12-11T18:11:08.396Z,32.97
2022-12-11T18:13:35.346Z,26.05
2022-12-11T18:16:10.355Z,23.95
2022-12-11T18:18:37.690Z,25.42
2022-12-11T18:21:04.937Z,41.63
2022-12-11T18:23:31.814Z,39.45
2022-12-11T18:25:58.556Z,41.85
2022-12-11T18:28:25.300Z,45.53
2022-12-11T18:30:53.383Z,36.22
2022-12-11T18:33:21.928Z,39.80
2022-12-11T18:35:50.259Z,25.92
2022-12-11T18:38:17.041Z,27.92
2022-12-11T18:40:43.759Z,34.58
2022-12-11T18:43:10.614Z,48.05
2022-12-11T18:45:41.728Z,51.53
2022-12-11T18:48:08.758Z,52.30
2022-12-11T18:50:35.995Z,34.40
2022-12-11T18:53:03.185Z,37.60
2022-12-11T18:55:30.281Z,45.08
2022-12-11T18:57:56.981Z,34.60
2022-12-11T19:00:23.897Z,31.98
2022-12-11T19:02:52.525Z,57.33
2022-12-11T19:05:19.506Z,41.10
2022-12-11T19:07:46.273Z,37.65
2022-12-11T19:10:13.152Z,38.63
2022-12-11T19:12:40.367Z,24.95
2022-12-11T19:15:07.577Z,23.15
2022-12-11T19:17:34.257Z,20.13
2022-12-11T19:20:18.837Z,22.90
2022-12-11T19:22:47.721Z,57.88
2022-12-11T19:25:14.583Z,52.90
2022-12-11T19:27:41.402Z,31.55
2022-12-11T19:30:10.496Z,24.75
2022-12-11T19:32:37.191Z,19.80
2022-12-11T19:35:04.194Z,17.30
2022-12-11T19:37:30.928Z,20.90
2022-12-11T19:39:57.702Z,23.10
2022-12-11T19:42:24.436Z,21.58
2022-12-11T19:44:51.229Z,27.52
2022-12-11T19:47:17.977Z,20.33
2022-12-11T19:49:45.833Z,25.30
2022-12-11T19:52:12.508Z,22.80
2022-12-11T19:54:39.195Z,65.45
2022-12-11T19:57:05.890Z,26.80
2022-12-11T19:59:32.573Z,25.45
2022-12-11T20:01:59.287Z,32.78
2022-12-11T20:04:26.081Z,29.35
2022-12-11T20:06:52.771Z,32.55
2022-12-11T20:09:19.549Z,27.25
2022-12-11T20:11:47.740Z,28.17
2022-12-11T20:14:23.913Z,30.95
2022-12-11T20:17:10.915Z,23.88
2022-12-11T20:19:38.116Z,43.45
2022-12-11T20:22:05.434Z,32.72
2022-12-11T20:24:32.222Z,20.80
2022-12-11T20:26:58.909Z,20.10
2022-12-11T20:29:25.634Z,24.08
2022-12-11T20:31:52.538Z,29.63
2022-12-11T20:34:20.021Z,27.40
2022-12-11T20:36:52.379Z,19.00
2022-12-11T20:39:19.580Z,18.42
2022-12-11T20:41:46.255Z,20.77
2022-12-11T20:44:12.974Z,18.45
2022-12-11T20:46:39.765Z,16.73
2022-12-11T20:49:12.571Z,21.63
2022-12-11T20:51:39.801Z,28.17
2022-12-11T20:54:06.599Z,27.98
2022-12-11T20:56:33.411Z,26.83
2022-12-11T20:59:00.712Z,26.05
2022-12-11T21:01:30.188Z,26.83
2022-12-11T21:03:57.518Z,19.73
2022-12-11T21:06:35.564Z,23.38
2022-12-11T21:09:06.970Z,34.60
2022-12-11T21:11:33.932Z,26.27
2022-12-11T21:14:00.659Z,25.83
2022-12-11T21:16:27.667Z,27.33
2022-12-11T21:18:55.987Z,25.13
2022-12-11T21:21:23.015Z,22.08
2022-12-11T21:23:49.811Z,33.17
2022-12-11T21:26:17.089Z,50.50
2022-12-11T21:28:43.970Z,32.13
2022-12-11T21:31:14.651Z,23.10
2022-12-11T21:33:41.797Z,22.20
2022-12-11T21:36:11.014Z,26.48
2022-12-11T21:38:38.177Z,29.35
2022-12-11T21:41:14.144Z,22.42
2022-12-11T21:44:14.249Z,16.63
2022-12-11T21:46:29.301Z,20.65
2022-12-11T21:48:56.279Z,18.77
2022-12-11T21:51:22.937Z,17.67
2022-12-11T21:53:51.760Z,30.65
2022-12-11T21:56:21.945Z,27.58
2022-12-11T21:58:50.861Z,26.55
2022-12-11T22:01:24.458Z,16.02
2022-12-11T22:03:52.726Z,20.42
2022-12-11T22:06:20.046Z,18.48
2022-12-11T22:08:49.003Z,20.42
2022-12-11T22:11:19.266Z,21.83
2022-12-11T22:13:46.047Z,20.38
2022-12-11T22:16:12.840Z,18.42
2022-12-11T22:18:39.657Z,24.02
2022-12-11T22:21:06.473Z,25.85
2022-12-11T22:23:33.401Z,24.88
2022-12-11T22:26:00.210Z,24.20
2022-12-11T22:28:26.920Z,22.15
2022-12-11T22:30:53.655Z,21.75
2022-12-11T22:33:20.512Z,23.67
2022-12-11T22:35:47.448Z,20.58
2022-12-11T22:38:14.209Z,24.33
2022-12-11T22:40:41.627Z,25.23
2022-12-11T22:43:08.337Z,30.17
2022-12-11T22:45:39.002Z,26.58
2022-12-11T22:48:07.206Z,27.17
2022-12-11T22:50:35.404Z,25.92
2022-12-11T22:53:02.392Z,22.15
2022-12-11T22:55:29.603Z,21.73
2022-12-11T22:57:56.608Z,23.55
2022-12-11T23:00:23.978Z,21.13
2022-12-11T23:02:50.882Z,18.77
2022-12-11T23:05:17.788Z,19.17
2022-12-11T23:07:44.557Z,20.55
2022-12-11T23:10:11.611Z,22.40
2022-12-11T23:12:38.335Z,21.98
2022-12-11T23:15:06.688Z,17.15
2022-12-11T23:17:33.388Z,16.10
2022-12-11T23:20:03.554Z,17.25
2022-12-11T23:22:30.516Z,20.88
2022-12-11T23:24:57.436Z,22.88
2022-12-11T23:27:24.212Z,18.20
2022-12-11T23:29:50.913Z,16.48
2022-12-11T23:32:17.640Z,14.85
2022-12-11T23:34:44.334Z,18.25
2022-12-11T23:37:11.016Z,17.20
2022-12-11T23:39:37.745Z,14.93
2022-12-11T23:42:04.558Z,16.65
2022-12-11T23:44:31.244Z,15.05
2022-12-11T23:46:57.924Z,17.92
2022-12-11T23:49:24.626Z,15.13
2022-12-11T23:51:51.311Z,14.80
2022-12-11T23:54:18.058Z,16.20
2022-12-11T23:56:44.749Z,15.30
2022-12-11T23:59:15.325Z,16.58
